Time;durP1;ratioP1;P1;durP2;ratioP2;P2;SDS_P1;SDS_P2;PMS_P1;PMS_P2;Temp;Humidity;BMP_temperature;BMP_pressure;BME280_temperature;BME280_humidity;BME280_pressure;Samples;Min_cycle;Max_cycle;Signal;HPM_P1;HPM_P2
2022/11/15 00:01:18;;;;;;;13.20;10.83;;;;;;;2.34;100.00;96320.28;5009243;28;101819;-65
2022/11/15 00:04:05;;;;;;;13.63;11.10;;;;;;;2.33;100.00;96317.88;5012945;28;101769;-65
2022/11/15 00:06:51;;;;;;;13.83;11.87;;;;;;;2.39;100.00;96317.06;5008760;28;102253;-65
2022/11/15 00:09:36;;;;;;;14.50;11.67;;;;;;;2.62;100.00;96312.25;5009228;28;102169;-65
2022/11/15 00:12:21;;;;;;;14.87;11.30;;;;;;;2.61;100.00;96323.72;5009603;28;102032;-65
2022/11/15 00:15:08;;;;;;;13.43;11.20;;;;;;;2.54;100.00;96317.69;5008832;28;101787;-65
2022/11/15 00:17:53;;;;;;;13.97;11.20;;;;;;;2.57;100.00;96319.91;5009462;28;101844;-65
2022/11/15 00:20:40;;;;;;;12.53;10.60;;;;;;;2.51;100.00;96320.72;5009492;28;102055;-65
2022/11/15 00:23:27;;;;;;;11.30;9.77;;;;;;;2.43;100.00;96320.91;5008561;28;102126;-65
2022/11/15 00:26:14;;;;;;;12.03;10.63;;;;;;;2.26;100.00;96324.94;4995259;28;101871;-65
2022/11/15 00:29:00;;;;;;;13.10;10.30;;;;;;;2.27;100.00;96323.91;5015313;28;102058;-65
2022/11/15 00:31:45;;;;;;;12.27;10.67;;;;;;;2.40;100.00;96326.56;5009344;28;101724;-65
2022/11/15 00:34:31;;;;;;;12.33;10.50;;;;;;;2.54;100.00;96317.69;5009099;28;102034;-65
2022/11/15 00:37:18;;;;;;;13.70;10.80;;;;;;;2.45;100.00;96318.88;5007981;28;102382;-65
2022/11/15 00:40:04;;;;;;;12.57;10.40;;;;;;;2.38;100.00;96315.44;5009274;28;102144;-65
2022/11/15 00:42:50;;;;;;;11.77;10.37;;;;;;;2.31;100.00;96309.41;5009215;28;102053;-65
2022/11/15 00:45:35;;;;;;;12.73;10.47;;;;;;;2.36;100.00;96314.84;5008670;28;101733;-65
2022/11/15 00:48:21;;;;;;;12.50;10.30;;;;;;;2.35;100.00;96308.78;5009083;28;101630;-65
2022/11/15 00:51:07;;;;;;;12.77;10.10;;;;;;;2.21;100.00;96299.31;5008864;28;102195;-65
2022/11/15 00:53:54;;;;;;;11.53;9.63;;;;;;;1.97;100.00;96304.31;5011995;28;102230;-65
2022/11/15 00:56:40;;;;;;;10.63;9.17;;;;;;;1.81;100.00;96302.06;5009459;28;102045;-65
2022/11/15 00:59:25;;;;;;;10.13;8.70;;;;;;;1.90;100.00;96300.84;5008750;28;102216;-65
2022/11/15 01:02:10;;;;;;;11.10;9.33;;;;;;;1.95;100.00;96294.03;5010055;28;101757;-65
2022/11/15 01:04:55;;;;;;;9.77;8.70;;;;;;;1.90;100.00;96296.44;5009573;28;102224;-65
2022/11/15 01:07:41;;;;;;;10.03;8.93;;;;;;;1.95;100.00;96298.44;5008730;28;102232;-65
2022/11/15 01:10:28;;;;;;;10.87;9.60;;;;;;;1.96;100.00;96300.06;5009361;28;101773;-65
2022/11/15 01:13:14;;;;;;;10.97;9.00;;;;;;;1.86;100.00;96291.78;5009506;28;102217;-65
2022/11/15 01:16:00;;;;;;;12.20;9.13;;;;;;;1.86;100.00;96289.19;5009063;28;102228;-65
2022/11/15 01:18:46;;;;;;;9.43;8.20;;;;;;;1.86;100.00;96278.69;5012723;28;101892;-65
2022/11/15 01:21:31;;;;;;;9.47;8.40;;;;;;;1.73;100.00;96283.88;5008790;28;102208;-65
2022/11/15 01:24:17;;;;;;;11.73;9.40;;;;;;;1.75;100.00;96271.41;5009045;28;101726;-65
2022/11/15 01:27:04;;;;;;;13.60;9.07;;;;;;;1.70;100.00;96277.22;5009254;28;102082;-65
2022/11/15 01:29:50;;;;;;;10.10;8.83;;;;;;;1.82;100.00;96272.22;5008309;28;102227;-65
2022/11/15 01:32:35;;;;;;;10.93;8.93;;;;;;;1.95;100.00;96274.84;5008778;28;101952;-65
2022/11/15 01:35:21;;;;;;;9.90;8.53;;;;;;;1.88;100.00;96272.25;5009081;28;102079;-65
2022/11/15 01:38:06;;;;;;;11.23;10.03;;;;;;;1.94;100.00;96276.69;5008300;28;102255;-65
2022/11/15 01:40:52;;;;;;;10.23;9.03;;;;;;;1.87;100.00;96264.56;5008299;28;102011;-65
2022/11/15 01:43:40;;;;;;;10.83;8.90;;;;;;;1.75;100.00;96272.19;5012008;28;102217;-65
2022/11/15 01:46:31;;;;;;;11.00;9.23;;;;;;;1.78;100.00;96256.09;5010166;28;101893;-65
2022/11/15 01:49:20;;;;;;;13.50;10.10;;;;;;;1.68;100.00;96257.47;5008773;28;102058;-65
2022/11/15 01:52:11;;;;;;;10.50;8.87;;;;;;;1.72;100.00;96245.59;5007549;28;102196;-65
2022/11/15 01:55:02;;;;;;;11.33;8.93;;;;;;;1.63;100.00;96244.97;5009178;28;101847;-65
2022/11/15 01:57:50;;;;;;;9.33;8.43;;;;;;;1.74;100.00;96243.56;5008594;28;102095;-65
2022/11/15 02:00:38;;;;;;;8.87;7.97;;;;;;;1.58;100.00;96241.34;5008254;28;102188;-65
2022/11/15 02:03:30;;;;;;;10.90;8.83;;;;;;;1.59;100.00;96235.09;5008845;28;101953;-65
2022/11/15 02:06:16;;;;;;;10.03;8.37;;;;;;;1.58;100.00;96233.47;5008645;28;102027;-65
2022/11/15 02:09:01;;;;;;;9.57;7.83;;;;;;;1.39;100.00;96221.13;5010154;28;101896;-65
2022/11/15 02:11:49;;;;;;;9.10;8.10;;;;;;;1.34;100.00;96215.66;5008829;28;102125;-65
2022/11/15 02:14:35;;;;;;;11.27;9.10;;;;;;;1.45;100.00;96229.00;5007996;28;102798;-65
2022/11/15 02:17:44;;;;;;;9.67;7.93;;;;;;;1.41;100.00;96227.78;5008502;28;101692;-65
2022/11/15 02:20:53;;;;;;;9.07;7.87;;;;;;;1.42;100.00;96233.84;5008492;28;102192;-65
2022/11/15 02:24:22;;;;;;;9.87;8.20;;;;;;;1.50;100.00;96225.78;5007594;28;102240;-65
2022/11/15 02:27:36;;;;;;;11.30;9.10;;;;;;;1.38;100.00;96230.00;5008366;28;101704;-65
2022/11/15 02:30:29;;;;;;;10.63;8.30;;;;;;;1.33;100.00;96219.28;5007917;28;102029;-65
2022/11/15 02:33:27;;;;;;;9.80;8.20;;;;;;;1.28;100.00;96214.66;5011440;28;102212;-65
2022/11/15 02:36:19;;;;;;;9.27;7.37;;;;;;;1.17;100.00;96203.94;5008466;28;102029;-65
2022/11/15 02:39:12;;;;;;;8.60;7.60;;;;;;;1.31;100.00;96202.97;5007427;28;102279;-65
2022/11/15 02:42:03;;;;;;;9.97;8.13;;;;;;;1.31;100.00;96202.97;5008419;28;101671;-65
2022/11/15 02:44:49;;;;;;;10.63;8.93;;;;;;;1.29;100.00;96199.72;5008011;28;102023;-65
2022/11/15 02:47:42;;;;;;;10.80;8.70;;;;;;;1.31;100.00;96195.91;5010448;28;102207;-65
2022/11/15 02:50:30;;;;;;;9.53;8.53;;;;;;;1.33;100.00;96187.84;5007699;28;101670;-65
2022/11/15 02:53:16;;;;;;;10.23;8.53;;;;;;;1.39;100.00;96193.13;5007813;28;102270;-65
2022/11/15 02:56:02;;;;;;;9.93;8.50;;;;;;;1.22;100.00;96188.44;5007231;28;102226;-65
2022/11/15 02:59:08;;;;;;;9.67;8.03;;;;;;;1.17;100.00;96182.97;5011386;28;101689;-65
2022/11/15 03:02:08;;;;;;;10.73;8.00;;;;;;;1.27;100.00;96188.66;5007308;28;102162;-65
2022/11/15 03:04:59;;;;;;;9.40;8.10;;;;;;;1.22;100.00;96177.97;5008002;28;101644;-65
2022/11/15 03:07:53;;;;;;;9.90;8.40;;;;;;;1.32;100.00;96178.38;5007664;28;102165;-65
2022/11/15 03:10:46;;;;;;;10.90;8.53;;;;;;;1.14;100.00;96178.94;5007020;28;102225;-65
2022/11/15 03:13:39;;;;;;;9.53;8.53;;;;;;;1.15;100.00;96171.91;5007815;28;101843;-65
2022/11/15 03:16:29;;;;;;;10.17;8.07;;;;;;;1.10;100.00;96176.94;5007636;28;102070;-65
2022/11/15 03:19:20;;;;;;;10.53;8.90;;;;;;;1.26;100.00;96171.34;5007125;28;102211;-65
2022/11/15 03:22:11;;;;;;;8.80;7.20;;;;;;;1.14;100.00;96173.72;5007650;28;101646;-65
2022/11/15 03:25:00;;;;;;;8.67;7.67;;;;;;;1.17;100.00;96168.09;5010524;28;102026;-65
2022/11/15 03:27:49;;;;;;;12.67;8.23;;;;;;;1.30;100.00;96167.28;5007119;28;101772;-65
2022/11/15 03:30:38;;;;;;;8.80;7.87;;;;;;;1.32;100.00;96165.28;5007505;28;102058;-65
2022/11/15 03:33:23;;;;;;;9.00;8.10;;;;;;;1.27;100.00;96165.09;5007139;28;102185;-65
2022/11/15 03:36:09;;;;;;;10.20;8.33;;;;;;;1.22;100.00;96157.78;5007290;28;101840;-65
2022/11/15 03:39:02;;;;;;;9.00;8.07;;;;;;;1.09;100.00;96155.16;5007048;28;102074;-65
2022/11/15 03:41:52;;;;;;;8.77;7.87;;;;;;;0.98;100.00;96152.28;5006561;28;102254;-65
2022/11/15 03:44:45;;;;;;;8.50;7.40;;;;;;;0.87;100.00;96148.44;5007067;28;101634;-65
2022/11/15 03:47:37;;;;;;;10.10;8.07;;;;;;;0.88;100.00;96144.03;5009899;28;101980;-65
2022/11/15 03:50:25;;;;;;;10.03;8.50;;;;;;;0.95;100.00;96144.84;5009856;28;101717;-65
2022/11/15 03:53:11;;;;;;;9.33;7.83;;;;;;;0.85;100.00;96136.56;5007285;28;102183;-65
2022/11/15 03:55:58;;;;;;;9.47;7.63;;;;;;;0.85;100.00;96128.72;5006603;28;102224;-65
2022/11/15 03:58:43;;;;;;;9.10;8.17;;;;;;;0.89;100.00;96122.09;5007025;28;101687;-65
2022/11/15 04:01:29;;;;;;;9.30;8.40;;;;;;;0.93;100.00;96128.53;5007108;28;102073;-65
2022/11/15 04:04:15;;;;;;;9.33;8.17;;;;;;;0.95;100.00;96129.16;5006636;28;102203;-65
2022/11/15 04:07:00;;;;;;;9.03;8.07;;;;;;;0.94;100.00;96130.16;5007237;28;101999;-65
2022/11/15 04:10:05;;;;;;;11.17;8.17;;;;;;;0.90;100.00;96127.13;5006896;28;102035;-65
2022/11/15 04:12:52;;;;;;;10.20;8.87;;;;;;;0.83;100.00;96120.25;5006266;28;102181;-65
2022/11/15 04:15:38;;;;;;;12.07;8.87;;;;;;;0.89;100.00;96128.09;5010192;28;101688;-65
2022/11/15 04:18:24;;;;;;;9.40;8.00;;;;;;;0.74;100.00;96124.03;5006384;28;102251;-65
2022/11/15 04:24:15;;;;;;;9.80;8.40;;;;;;;0.79;100.00;96111.19;5010124;28;102030;-65
2022/11/15 04:27:01;;;;;;;8.67;7.77;;;;;;;0.78;100.00;96112.19;5006383;28;102197;-65
2022/11/15 04:29:48;;;;;;;11.13;8.53;;;;;;;0.78;100.00;96114.81;5006855;28;101649;-65
2022/11/15 04:32:33;;;;;;;10.53;8.93;;;;;;;0.75;100.00;96110.75;5008524;28;102073;-65
2022/11/15 04:35:18;;;;;;;9.07;8.17;;;;;;;0.70;100.00;96104.50;5009699;28;102166;-65
2022/11/15 04:38:06;;;;;;;11.67;8.27;;;;;;;0.60;100.00;96111.94;5013477;28;101704;-65
2022/11/15 04:40:52;;;;;;;11.80;8.37;;;;;;;0.71;100.00;96113.97;5009547;28;102192;-65
2022/11/15 04:43:37;;;;;;;10.27;7.97;;;;;;;0.76;100.00;96103.69;5010210;28;101893;-65
2022/11/15 04:46:25;;;;;;;11.03;8.30;;;;;;;0.75;100.00;96105.53;5011079;28;102057;-65
2022/11/15 04:49:11;;;;;;;12.80;8.70;;;;;;;0.97;100.00;96109.63;5009361;28;102194;-65
2022/11/15 04:52:07;;;;;;;9.07;8.17;;;;;;;0.90;100.00;96108.81;5010087;28;101728;-65
2022/11/15 04:54:52;;;;;;;10.40;9.17;;;;;;;0.95;100.00;96111.63;5010298;28;102018;-65
2022/11/15 04:57:38;;;;;;;10.13;8.63;;;;;;;0.81;100.00;96098.69;5009338;28;102175;-65
2022/11/15 05:00:24;;;;;;;9.80;8.80;;;;;;;0.86;100.00;96091.06;5010208;28;101961;-65
2022/11/15 05:06:14;;;;;;;8.93;8.00;;;;;;;0.80;100.00;96084.00;5013188;28;102056;-65
2022/11/15 05:09:00;;;;;;;10.63;7.87;;;;;;;0.69;100.00;96084.56;5010087;28;101995;-65
2022/11/15 05:11:48;;;;;;;11.20;9.00;;;;;;;0.74;100.00;96074.31;5027505;28;101695;-65
2022/11/15 05:14:33;;;;;;;10.47;8.50;;;;;;;0.67;100.00;96076.13;5032147;28;102057;-65
2022/11/15 05:17:20;;;;;;;12.27;9.60;;;;;;;0.74;100.00;96074.31;5029427;28;102077;-65
2022/11/15 05:20:08;;;;;;;13.00;10.10;;;;;;;0.82;100.00;96077.56;5028509;28;102207;-65
2022/11/15 05:22:57;;;;;;;12.67;11.03;;;;;;;0.86;100.00;96083.19;5028515;28;101672;-65
2022/11/15 05:25:42;;;;;;;13.63;11.07;;;;;;;0.97;100.00;96090.47;5028235;28;102029;-65
2022/11/15 05:28:28;;;;;;;12.70;10.67;;;;;;;0.73;100.00;96077.94;5031418;28;102280;-65
2022/11/15 05:31:16;;;;;;;14.20;10.37;;;;;;;0.79;100.00;96074.53;5028220;28;102067;-65
2022/11/15 05:34:06;;;;;;;11.00;8.90;;;;;;;0.41;100.00;96066.38;5027888;28;102213;-65
2022/11/15 05:36:54;;;;;;;11.03;9.00;;;;;;;0.48;100.00;96069.00;5018278;28;102073;-65
2022/11/15 05:39:40;;;;;;;10.60;8.10;;;;;;;0.31;100.00;96073.78;5008870;28;102045;-65
2022/11/15 05:42:27;;;;;;;11.83;8.67;;;;;;;0.58;100.00;96077.28;5008475;28;102291;-65
2022/11/15 05:45:13;;;;;;;12.53;10.13;;;;;;;0.66;100.00;96075.31;5008679;28;101843;-65
2022/11/15 05:48:01;;;;;;;11.77;8.40;;;;;;;0.74;100.00;96071.69;5008133;28;102068;-65
2022/11/15 05:50:49;;;;;;;10.50;8.50;;;;;;;0.58;100.00;96072.06;5008032;28;101992;-65
2022/11/15 05:53:37;;;;;;;12.93;9.50;;;;;;;0.67;100.00;96076.13;5012134;28;101676;-65
2022/11/15 05:56:23;;;;;;;11.73;9.70;;;;;;;0.69;100.00;96068.88;5007632;28;101733;-65
2022/11/15 05:59:10;;;;;;;11.20;8.70;;;;;;;0.34;100.00;96060.28;5008592;28;101648;-65
2022/11/15 06:01:55;;;;;;;9.00;7.70;;;;;;;0.43;100.00;96074.00;5008637;28;102076;-65
2022/11/15 06:04:41;;;;;;;10.73;8.67;;;;;;;0.39;100.00;96072.81;5008111;28;102271;-65
2022/11/15 06:07:26;;;;;;;12.70;8.90;;;;;;;0.53;100.00;96071.84;5008143;28;101704;-65
2022/11/15 06:10:14;;;;;;;10.60;8.60;;;;;;;0.65;100.00;96073.69;5008573;28;102115;-65
2022/11/15 06:13:00;;;;;;;12.03;9.40;;;;;;;0.66;100.00;96066.66;5007853;28;102224;-65
2022/11/15 06:15:46;;;;;;;11.23;8.50;;;;;;;0.63;100.00;96054.78;5008541;28;101686;-65
2022/11/15 06:18:34;;;;;;;10.77;8.97;;;;;;;0.73;100.00;96064.88;5010993;28;102224;-65
2022/11/15 06:21:20;;;;;;;15.23;9.90;;;;;;;0.71;100.00;96053.81;5008215;28;101680;-65
2022/11/15 06:24:07;;;;;;;14.70;10.17;;;;;;;0.55;100.00;96057.56;5008045;28;101753;-65
2022/11/15 06:26:54;;;;;;;14.17;9.80;;;;;;;0.53;100.00;96056.97;5007053;28;102248;-65
2022/11/15 06:29:39;;;;;;;12.13;9.40;;;;;;;0.54;100.00;96060.38;5008243;28;101938;-65
2022/11/15 06:32:25;;;;;;;13.43;10.10;;;;;;;0.61;100.00;96054.16;5008232;28;102159;-65
2022/11/15 06:35:11;;;;;;;11.40;8.77;;;;;;;0.56;100.00;96055.75;5006749;28;102258;-65
2022/11/15 06:37:56;;;;;;;11.00;8.73;;;;;;;0.55;100.00;96056.78;5007695;28;101697;-65
2022/11/15 06:40:42;;;;;;;10.77;8.60;;;;;;;0.40;100.00;96048.25;5008314;28;102026;-65
2022/11/15 06:43:28;;;;;;;11.40;8.07;;;;;;;0.46;100.00;96045.69;5011812;28;101787;-65
2022/11/15 06:46:14;;;;;;;12.10;8.87;;;;;;;0.56;100.00;96045.28;5009134;28;101696;-65
2022/11/15 06:48:59;;;;;;;11.00;9.77;;;;;;;0.64;100.00;96050.34;5007049;28;102255;-65
2022/11/15 06:51:44;;;;;;;12.90;9.33;;;;;;;0.77;100.00;96050.38;5007278;28;102103;-65
2022/11/15 06:54:31;;;;;;;11.10;9.73;;;;;;;0.82;100.00;96054.00;5010775;28;101887;-65
2022/11/15 06:57:17;;;;;;;10.13;8.70;;;;;;;0.84;100.00;96048.59;5007373;28;102205;-65
2022/11/15 07:00:06;;;;;;;12.77;9.67;;;;;;;1.02;100.00;96054.03;5007589;28;102129;-65
2022/11/15 07:02:51;;;;;;;11.53;10.13;;;;;;;1.05;100.00;96049.22;5008079;28;101997;-65
2022/11/15 07:05:37;;;;;;;14.37;11.77;;;;;;;1.18;100.00;96054.47;5009203;28;102215;-65
2022/11/15 07:08:23;;;;;;;22.53;17.13;;;;;;;1.33;100.00;96054.28;5006563;28;102055;-65
2022/11/15 07:11:09;;;;;;;26.90;20.27;;;;;;;1.46;100.00;96062.13;5006208;28;101797;-65
2022/11/15 07:13:54;;;;;;;54.47;38.13;;;;;;;1.55;100.00;96058.31;5007804;28;102058;-65
2022/11/15 07:16:41;;;;;;;58.43;44.07;;;;;;;1.67;100.00;96067.16;5006659;28;101993;-65
2022/11/15 07:19:27;;;;;;;35.73;27.50;;;;;;;1.75;100.00;96059.88;5006012;28;102187;-65
2022/11/15 07:22:12;;;;;;;23.13;19.07;;;;;;;1.86;100.00;96053.22;5006687;28;101667;-65
2022/11/15 07:24:57;;;;;;;26.13;20.47;;;;;;;1.75;100.00;96046.78;5006725;28;102168;-65
2022/11/15 07:27:43;;;;;;;23.00;18.13;;;;;;;1.89;100.00;96042.31;5005995;28;102192;-65
2022/11/15 07:30:29;;;;;;;22.87;16.53;;;;;;;1.91;100.00;96037.69;5009843;28;101720;-65
2022/11/15 07:33:16;;;;;;;19.47;15.90;;;;;;;1.99;100.00;96032.22;5005976;28;102173;-65
2022/11/15 07:36:02;;;;;;;21.43;15.40;;;;;;;2.25;100.00;96037.38;5005968;28;101822;-65
2022/11/15 07:38:48;;;;;;;18.43;15.67;;;;;;;2.39;100.00;96028.44;5006191;28;102070;-65
2022/11/15 07:41:33;;;;;;;19.40;15.80;;;;;;;2.64;100.00;96029.34;5005809;28;102329;-65
2022/11/15 07:44:18;;;;;;;83.17;58.07;;;;;;;2.77;100.00;96042.38;5006226;28;101679;-65
2022/11/15 07:47:04;;;;;;;35.30;24.37;;;;;;;2.90;100.00;96037.88;5008419;28;102030;-65
2022/11/15 07:49:51;;;;;;;29.97;24.53;;;;;;;3.02;100.00;96038.81;5005716;28;102238;-65
2022/11/15 07:52:38;;;;;;;35.50;25.83;;;;;;;3.24;100.00;96039.28;5006013;28;102090;-65
2022/11/15 07:55:24;;;;;;;21.63;16.73;;;;;;;3.39;100.00;96029.25;5009170;28;102215;-65
2022/11/15 07:58:11;;;;;;;20.97;16.87;;;;;;;3.39;100.00;96032.66;5005776;28;101694;-65
2022/11/15 08:00:56;;;;;;;20.10;15.67;;;;;;;3.43;100.00;96033.03;5006210;28;102027;-65
2022/11/15 08:03:42;;;;;;;18.07;15.00;;;;;;;3.66;100.00;96036.69;5005480;28;102299;-65
2022/11/15 08:06:33;;;;;;;21.30;17.30;;;;;;;3.85;100.00;96030.47;5006204;28;101956;-65
2022/11/15 08:09:18;;;;;;;21.13;16.83;;;;;;;4.00;100.00;96027.47;5009606;28;102191;-65
2022/11/15 08:12:04;;;;;;;20.30;16.50;;;;;;;4.16;100.00;96026.91;5008459;28;102190;-65
2022/11/15 08:14:49;;;;;;;20.83;16.53;;;;;;;4.35;100.00;96026.66;5012330;28;101937;-65
2022/11/15 08:17:35;;;;;;;21.00;17.40;;;;;;;4.54;100.00;96019.56;5009441;28;102532;-65
2022/11/15 08:20:21;;;;;;;21.77;17.33;;;;;;;4.72;100.00;96015.06;5012315;28;102184;-65
2022/11/15 08:23:11;;;;;;;22.07;16.73;;;;;;;4.86;100.00;96013.06;5009251;28;102035;-65
2022/11/15 08:26:00;;;;;;;20.87;15.10;;;;;;;5.04;100.00;96005.09;5008981;28;102283;-65
2022/11/15 08:28:46;;;;;;;18.53;15.43;;;;;;;5.28;100.00;96004.94;5009344;28;101711;-65
2022/11/15 08:31:32;;;;;;;19.10;14.07;;;;;;;5.53;100.00;96004.72;5009081;28;102029;-65
2022/11/15 08:34:18;;;;;;;14.53;12.83;;;;;;;5.67;100.00;95992.94;5008691;28;102245;-65
2022/11/15 08:37:04;;;;;;;14.23;12.73;;;;;;;5.87;100.00;95996.03;5009093;28;101826;-65
2022/11/15 08:39:51;;;;;;;16.57;12.63;;;;;;;6.15;100.00;95996.13;5009315;28;101894;-65
2022/11/15 08:42:37;;;;;;;17.80;14.23;;;;;;;6.36;100.00;95982.31;5008396;28;102196;-65
2022/11/15 08:45:22;;;;;;;16.20;12.80;;;;;;;6.56;100.00;95975.59;5012602;28;101945;-65
2022/11/15 08:48:08;;;;;;;14.27;12.73;;;;;;;6.67;100.00;95973.94;5008476;28;102260;-65
2022/11/15 08:50:55;;;;;;;13.67;12.27;;;;;;;6.99;100.00;95972.44;5008611;28;101704;-65
2022/11/15 08:53:42;;;;;;;13.03;11.60;;;;;;;7.19;100.00;95970.16;5009119;28;102047;-65
2022/11/15 08:56:30;;;;;;;15.20;11.37;;;;;;;7.44;100.00;95967.88;5008312;28;102254;-65
2022/11/15 08:59:15;;;;;;;15.60;11.13;;;;;;;7.65;100.00;95959.22;5008950;28;101812;-65
2022/11/15 09:02:01;;;;;;;12.20;10.63;;;;;;;7.84;100.00;95947.31;5008710;28;102098;-65
2022/11/15 09:04:47;;;;;;;11.47;10.27;;;;;;;8.06;100.00;95938.38;5008181;28;102233;-69
2022/11/15 09:07:33;;;;;;;10.43;9.33;;;;;;;8.25;100.00;95930.97;5011670;28;101659;-67
2022/11/15 09:10:19;;;;;;;12.90;9.10;;;;;;;8.40;100.00;95925.84;5015740;28;102037;-65
2022/11/15 09:13:07;;;;;;;10.33;9.30;;;;;;;8.55;100.00;95937.41;5011526;28;101957;-64
2022/11/15 09:15:53;;;;;;;7.97;7.17;;;;;;;8.53;100.00;95931.56;5009205;28;102040;-64
2022/11/15 09:18:38;;;;;;;9.13;7.40;;;;;;;8.81;100.00;95925.22;5008630;28;102266;-65
2022/11/15 09:21:24;;;;;;;8.67;7.07;;;;;;;9.03;100.00;95929.41;5009515;28;101681;-64
2022/11/15 09:24:10;;;;;;;8.43;6.53;;;;;;;9.16;100.00;95931.66;5012482;28;102056;-64
2022/11/15 09:26:56;;;;;;;9.60;7.77;;;;;;;8.86;100.00;95927.91;5011955;28;102340;-64
2022/11/15 09:29:43;;;;;;;10.00;8.43;;;;;;;8.54;100.00;95921.75;5012231;28;101658;-64
2022/11/15 09:32:31;;;;;;;8.20;7.27;;;;;;;8.62;100.00;95922.09;5011927;28;102205;-62
2022/11/15 09:35:17;;;;;;;7.77;6.97;;;;;;;8.81;100.00;95911.97;5009191;28;101972;-62
2022/11/15 09:38:02;;;;;;;6.97;6.37;;;;;;;8.42;100.00;95923.75;5012009;28;102060;-63
2022/11/15 09:40:53;;;;;;;8.03;7.23;;;;;;;8.52;100.00;95916.72;5008397;28;102476;-64
2022/11/15 09:43:49;;;;;;;7.83;7.03;;;;;;;8.67;100.00;95916.06;5012285;28;101717;-63
2022/11/15 09:46:41;;;;;;;7.17;6.47;;;;;;;8.41;100.00;95908.91;5010589;28;102061;-63
2022/11/15 09:49:34;;;;;;;7.70;7.00;;;;;;;8.67;100.00;95908.91;5003306;28;103031;-61
2022/11/15 09:52:19;;;;;;;7.40;6.70;;;;;;;8.78;100.00;95909.81;5010288;28;101833;-69
2022/11/15 09:54:50;;;;;;;7.13;6.50;;;;;;;8.77;100.00;95900.28;5015512;28;102838;-64
2022/11/15 09:57:21;;;;;;;7.57;6.87;;;;;;;8.72;100.00;95889.63;5016079;28;106027;-65
2022/11/15 10:00:13;;;;;;;7.90;7.10;;;;;;;8.80;100.00;95897.91;5030688;28;102300;-64
2022/11/15 10:03:12;;;;;;;8.63;6.97;;;;;;;8.80;100.00;95897.09;5031220;28;103131;-63
2022/11/15 10:05:43;;;;;;;7.70;7.00;;;;;;;8.74;100.00;95900.75;5031952;28;101860;-64
2022/11/15 10:08:35;;;;;;;7.53;6.83;;;;;;;8.91;100.00;95888.19;5031803;28;102290;-65
2022/11/15 10:11:04;;;;;;;7.37;6.67;;;;;;;9.00;100.00;95881.38;5012957;28;104233;-66
2022/11/15 10:13:36;;;;;;;8.00;7.20;;;;;;;9.01;100.00;95867.06;5031313;28;101883;-64
2022/11/15 10:16:12;;;;;;;7.77;7.00;;;;;;;9.74;100.00;95861.72;5031690;28;102302;-64
2022/11/15 10:18:50;;;;;;;7.33;6.57;;;;;;;9.50;100.00;95847.28;5031198;28;103137;-64
2022/11/15 10:21:21;;;;;;;6.67;6.07;;;;;;;9.42;100.00;95842.44;5035043;28;101750;-64
2022/11/15 10:23:49;;;;;;;7.27;6.57;;;;;;;9.16;100.00;95843.34;5030943;28;103032;-64
2022/11/15 10:26:18;;;;;;;7.40;6.70;;;;;;;9.54;100.00;95845.72;5031147;28;101878;-64
2022/11/15 10:28:45;;;;;;;7.50;6.70;;;;;;;9.93;100.00;95850.41;5012969;27;105504;-64
2022/11/15 10:31:23;;;;;;;6.43;5.83;;;;;;;10.31;100.00;95849.28;5029601;28;102920;-64
2022/11/15 10:33:53;;;;;;;6.90;6.30;;;;;;;10.50;100.00;95839.75;5012702;28;102311;-64
2022/11/15 10:36:24;;;;;;;6.57;5.97;;;;;;;10.72;100.00;95832.34;5012551;28;105099;-64
2022/11/15 10:38:58;;;;;;;7.13;6.47;;;;;;;10.83;100.00;95829.44;5011878;28;105754;-64
2022/11/15 10:41:37;;;;;;;6.67;6.07;;;;;;;11.08;100.00;95820.66;5030862;28;102877;-64
2022/11/15 10:44:24;;;;;;;7.10;6.40;;;;;;;10.98;100.00;95815.31;5015123;28;105145;-64
2022/11/15 10:47:20;;;;;;;6.83;6.23;;;;;;;10.74;100.00;95814.28;5029514;28;101982;-64
2022/11/15 10:49:57;;;;;;;6.67;5.97;;;;;;;10.73;100.00;95807.31;5030676;28;102303;-64
2022/11/15 10:52:25;;;;;;;6.60;5.90;;;;;;;11.12;100.00;95795.13;5011517;28;104771;-64
2022/11/15 10:54:56;;;;;;;9.20;6.37;;;;;;;10.90;100.00;95791.94;5030918;28;101683;-64
2022/11/15 10:57:27;;;;;;;5.90;5.40;;;;;;;11.59;100.00;95784.91;5030532;28;102814;-64
2022/11/15 10:59:57;;;;;;;6.13;5.53;;;;;;;11.84;100.00;95788.28;5011002;28;104431;-64
2022/11/15 11:02:31;;;;;;;7.90;6.67;;;;;;;12.01;100.00;95783.44;5012273;28;102098;-64
2022/11/15 11:05:01;;;;;;;10.00;7.17;;;;;;;11.77;100.00;95774.47;5012167;28;105235;-64
2022/11/15 11:07:30;;;;;;;10.20;6.97;;;;;;;11.97;100.00;95766.41;5033300;28;102600;-64
2022/11/15 11:10:00;;;;;;;7.40;6.57;;;;;;;12.37;100.00;95758.19;5030099;28;102591;-64
2022/11/15 11:12:31;;;;;;;6.33;5.73;;;;;;;12.75;100.00;95757.38;5029365;28;102863;-64
2022/11/15 11:14:59;;;;;;;7.40;6.23;;;;;;;12.84;100.00;95744.22;5012199;28;101930;-64
2022/11/15 11:17:35;;;;;;;7.93;6.00;;;;;;;12.84;100.00;95736.22;5030326;28;102546;-64
2022/11/15 11:20:11;;;;;;;5.97;5.47;;;;;;;12.82;100.00;95741.06;5029601;28;103063;-64
2022/11/15 11:22:48;;;;;;;6.27;5.47;;;;;;;13.15;100.00;95727.72;5012047;28;102642;-64
2022/11/15 11:25:26;;;;;;;5.77;4.97;;;;;;;13.48;100.00;95723.34;5011876;28;105140;-64
2022/11/15 11:28:22;;;;;;;6.73;5.80;;;;;;;13.67;100.00;95722.31;5011096;28;105514;-64
2022/11/15 11:30:59;;;;;;;5.93;4.80;;;;;;;13.96;100.00;95717.66;5015190;28;101976;-64
2022/11/15 11:33:32;;;;;;;4.97;4.57;;;;;;;14.12;100.00;95723.63;5011208;28;105690;-64
2022/11/15 11:36:16;;;;;;;7.10;6.40;;;;;;;13.74;100.00;95717.41;5030186;28;101840;-64
2022/11/15 11:38:53;;;;;;;6.40;5.67;;;;;;;13.30;100.00;95711.53;5029794;28;102385;-64
2022/11/15 11:41:35;;;;;;;6.33;5.73;;;;;;;13.53;100.00;95709.94;5013421;28;105503;-64
2022/11/15 11:44:12;;;;;;;6.63;6.00;;;;;;;13.30;100.00;95700.06;5036788;28;101793;-64
2022/11/15 11:46:50;;;;;;;5.70;5.17;;;;;;;13.35;100.00;95694.66;5036454;28;102877;-64
2022/11/15 11:49:22;;;;;;;6.10;5.50;;;;;;;13.57;100.00;95686.94;5036183;28;102852;-64
2022/11/15 11:51:57;;;;;;;5.43;4.93;;;;;;;13.80;100.00;95683.44;5021479;28;102057;-64
2022/11/15 11:54:33;;;;;;;6.50;4.93;;;;;;;13.82;100.00;95683.91;5017613;28;105576;-64
2022/11/15 11:57:04;;;;;;;6.10;4.63;;;;;;;14.25;100.00;95680.16;5036618;28;101796;-64
2022/11/15 11:59:43;;;;;;;5.47;4.80;;;;;;;14.42;100.00;95675.06;5017936;27;105434;-64
2022/11/15 12:02:16;;;;;;;6.40;5.50;;;;;;;13.85;100.00;95675.34;5017615;28;105345;-64
2022/11/15 12:04:48;;;;;;;6.33;5.03;;;;;;;13.63;100.00;95672.44;5036456;28;101879;-64
2022/11/15 12:07:20;;;;;;;5.70;5.20;;;;;;;14.14;100.00;95660.75;5036425;28;102662;-64
2022/11/15 12:09:56;;;;;;;4.93;4.50;;;;;;;14.45;100.00;95659.22;5017479;28;105030;-64
2022/11/15 12:12:31;;;;;;;4.80;4.40;;;;;;;14.64;100.00;95659.19;5036262;28;101712;-64
2022/11/15 12:15:03;;;;;;;6.00;5.40;;;;;;;14.89;100.00;95654.19;5038963;28;102565;-64
2022/11/15 12:17:33;;;;;;;5.47;4.97;;;;;;;14.58;100.00;95653.16;5017924;28;101899;-64
2022/11/15 12:20:03;;;;;;;5.30;4.80;;;;;;;14.39;100.00;95654.25;5036119;28;102909;-64
2022/11/15 12:22:40;;;;;;;5.13;4.73;;;;;;;14.35;100.00;95653.25;5017139;28;105782;-64
2022/11/15 12:25:16;;;;;;;5.70;4.43;;;;;;;14.43;100.00;95652.56;5036181;28;101759;-64
2022/11/15 12:27:47;;;;;;;5.00;4.60;;;;;;;14.48;100.00;95649.81;5036111;28;102488;-64
2022/11/15 12:30:17;;;;;;;5.03;4.63;;;;;;;14.66;100.00;95649.78;5035496;28;102858;-64
2022/11/15 12:32:52;;;;;;;4.97;4.23;;;;;;;14.61;100.00;95641.84;5017259;28;101875;-64
2022/11/15 12:35:26;;;;;;;4.20;3.90;;;;;;;14.74;100.00;95640.28;5036215;28;102438;-64
2022/11/15 12:37:56;;;;;;;4.47;4.17;;;;;;;14.98;100.00;95633.69;5020388;28;104699;-64
2022/11/15 12:40:28;;;;;;;5.30;4.80;;;;;;;15.45;100.00;95630.69;5035713;28;102364;-64
2022/11/15 12:43:05;;;;;;;4.23;3.93;;;;;;;14.88;100.00;95625.06;5016869;28;105592;-64